Terminal Aerodrome Forecast
Issued by NWS

Home | Current Version | Previous Version | Text Only | Print | Product List | Glossary On
Versions: 1 2 3 4 5 6 7 8 9 10 11 12 13 14 15 16 17 18 19 20 21 22 23 24
761
FTUS41 KRLX 261746
TAFCKB
TAF
KCKB 261746Z 2618/2718 VRB04KT P6SM VCTS SCT020 BKN040CB
      TEMPO 2618/2619 BKN020CB
     FM262300 VRB04KT 5SM TSRA BKN030CB BKN045
     FM270200 VRB02KT 6SM BR VCSH SCT030 BKN050
     FM270400 00000KT 5SM BR BKN070
     FM270700 00000KT 2SM BR SCT003 BKN080
     FM271300 00000KT 6SM BR SCT040 BKN080
     FM271600 27004KT P6SM VCTS BKN040CB=

USA.gov is the U.S. government's official web portal to all federal, state and local government web resources and services.